sensor_id;sensor_type;location;lat;lon;timestamp;pressure;altitude;pressure_sealevel;temperature;humidity
59513;BME280;45330;51.634;5.562;2022-12-18T00:01:12;102750.94;;;-7.02;100.00
59513;BME280;45330;51.634;5.562;2022-12-18T00:03:38;102753.16;;;-7.05;100.00
59513;BME280;45330;51.634;5.562;2022-12-18T00:06:04;102760.47;;;-7.08;100.00
59513;BME280;45330;51.634;5.562;2022-12-18T00:08:29;102794.97;;;-6.91;100.00
59513;BME280;45330;51.634;5.562;2022-12-18T00:10:54;102756.75;;;-7.12;100.00
59513;BME280;45330;51.634;5.562;2022-12-18T00:13:20;102775.06;;;-7.05;100.00
59513;BME280;45330;51.634;5.562;2022-12-18T00:15:45;102799.63;;;-6.96;100.00
59513;BME280;45330;51.634;5.562;2022-12-18T00:18:10;102787.84;;;-7.04;100.00
59513;BME280;45330;51.634;5.562;2022-12-18T00:20:37;102773.88;;;-7.18;100.00
59513;BME280;45330;51.634;5.562;2022-12-18T00:23:03;102754.66;;;-7.25;100.00
59513;BME280;45330;51.634;5.562;2022-12-18T00:25:28;102774.44;;;-7.12;100.00
59513;BME280;45330;51.634;5.562;2022-12-18T00:27:54;102752.28;;;-7.23;100.00
59513;BME280;45330;51.634;5.562;2022-12-18T00:30:19;102768.81;;;-7.18;100.00
59513;BME280;45330;51.634;5.562;2022-12-18T00:32:44;102755.41;;;-7.34;100.00
59513;BME280;45330;51.634;5.562;2022-12-18T00:35:10;102755.13;;;-7.37;100.00
59513;BME280;45330;51.634;5.562;2022-12-18T00:37:35;102751.84;;;-7.36;100.00
59513;BME280;45330;51.634;5.562;2022-12-18T00:40:01;102771.50;;;-7.25;100.00
59513;BME280;45330;51.634;5.562;2022-12-18T00:42:26;102745.88;;;-7.37;100.00
59513;BME280;45330;51.634;5.562;2022-12-18T00:45:10;102761.81;;;-7.29;100.00
59513;BME280;45330;51.634;5.562;2022-12-18T00:47:36;102772.97;;;-7.27;100.00
59513;BME280;45330;51.634;5.562;2022-12-18T00:50:01;102772.09;;;-7.28;100.00
59513;BME280;45330;51.634;5.562;2022-12-18T00:52:27;102765.09;;;-7.30;100.00
59513;BME280;45330;51.634;5.562;2022-12-18T00:54:52;102764.06;;;-7.32;100.00
59513;BME280;45330;51.634;5.562;2022-12-18T00:57:18;102740.53;;;-7.49;100.00
59513;BME280;45330;51.634;5.562;2022-12-18T00:59:43;102763.75;;;-7.35;100.00
59513;BME280;45330;51.634;5.562;2022-12-18T01:02:08;102734.28;;;-7.52;100.00
59513;BME280;45330;51.634;5.562;2022-12-18T01:04:34;102736.38;;;-7.57;100.00
59513;BME280;45330;51.634;5.562;2022-12-18T01:06:59;102730.88;;;-7.62;100.00
59513;BME280;45330;51.634;5.562;2022-12-18T01:09:24;102767.63;;;-7.39;100.00
59513;BME280;45330;51.634;5.562;2022-12-18T01:11:50;102781.56;;;-7.43;100.00
59513;BME280;45330;51.634;5.562;2022-12-18T01:14:15;102756.00;;;-7.63;100.00
59513;BME280;45330;51.634;5.562;2022-12-18T01:16:41;102795.44;;;-7.48;100.00
59513;BME280;45330;51.634;5.562;2022-12-18T01:19:06;102785.75;;;-7.52;100.00
59513;BME280;45330;51.634;5.562;2022-12-18T01:21:31;102793.34;;;-7.52;100.00
59513;BME280;45330;51.634;5.562;2022-12-18T01:23:57;102797.34;;;-7.54;100.00
59513;BME280;45330;51.634;5.562;2022-12-18T01:26:23;102795.25;;;-7.58;100.00
59513;BME280;45330;51.634;5.562;2022-12-18T01:28:49;102784.97;;;-7.60;100.00
59513;BME280;45330;51.634;5.562;2022-12-18T01:31:20;102755.94;;;-7.81;100.00
59513;BME280;45330;51.634;5.562;2022-12-18T01:33:46;102759.25;;;-7.82;100.00
59513;BME280;45330;51.634;5.562;2022-12-18T01:36:16;102786.78;;;-7.67;100.00
59513;BME280;45330;51.634;5.562;2022-12-18T01:38:42;102757.44;;;-7.83;100.00
59513;BME280;45330;51.634;5.562;2022-12-18T01:41:08;102761.34;;;-7.78;100.00
59513;BME280;45330;51.634;5.562;2022-12-18T01:43:51;102764.16;;;-7.74;100.00
59513;BME280;45330;51.634;5.562;2022-12-18T01:46:18;102743.44;;;-7.88;100.00
59513;BME280;45330;51.634;5.562;2022-12-18T01:48:47;102740.03;;;-7.88;100.00
59513;BME280;45330;51.634;5.562;2022-12-18T01:51:13;102737.53;;;-7.88;100.00
59513;BME280;45330;51.634;5.562;2022-12-18T01:53:41;102734.09;;;-7.89;100.00
59513;BME280;45330;51.634;5.562;2022-12-18T01:56:08;102761.94;;;-7.71;100.00
59513;BME280;45330;51.634;5.562;2022-12-18T01:58:39;102762.38;;;-7.76;100.00
59513;BME280;45330;51.634;5.562;2022-12-18T02:01:06;102761.91;;;-7.80;100.00
59513;BME280;45330;51.634;5.562;2022-12-18T02:03:32;102742.56;;;-7.97;100.00
59513;BME280;45330;51.634;5.562;2022-12-18T02:06:21;102769.03;;;-7.85;100.00
59513;BME280;45330;51.634;5.562;2022-12-18T02:14:38;102757.88;;;-7.87;100.00
59513;BME280;45330;51.634;5.562;2022-12-18T02:17:08;102761.88;;;-7.89;100.00
59513;BME280;45330;51.634;5.562;2022-12-18T02:19:52;102748.06;;;-8.01;100.00
59513;BME280;45330;51.634;5.562;2022-12-18T02:22:29;102763.94;;;-7.94;100.00
59513;BME280;45330;51.634;5.562;2022-12-18T02:27:37;102750.84;;;-8.07;100.00
59513;BME280;45330;51.634;5.562;2022-12-18T02:30:05;102751.31;;;-8.02;100.00
59513;BME280;45330;51.634;5.562;2022-12-18T02:32:35;102763.94;;;-8.02;100.00
59513;BME280;45330;51.634;5.562;2022-12-18T02:35:04;102772.53;;;-8.00;100.00
59513;BME280;45330;51.634;5.562;2022-12-18T02:37:31;102761.41;;;-8.02;100.00
59513;BME280;45330;51.634;5.562;2022-12-18T02:39:59;102768.56;;;-7.98;100.00
59513;BME280;45330;51.634;5.562;2022-12-18T02:42:25;102759.03;;;-8.01;100.00
59513;BME280;45330;51.634;5.562;2022-12-18T02:44:51;102758.16;;;-8.01;100.00
59513;BME280;45330;51.634;5.562;2022-12-18T02:47:20;102754.56;;;-8.03;100.00
59513;BME280;45330;51.634;5.562;2022-12-18T02:57:58;102728.84;;;-8.17;100.00
59513;BME280;45330;51.634;5.562;2022-12-18T03:00:40;102726.31;;;-8.08;100.00
59513;BME280;45330;51.634;5.562;2022-12-18T03:05:40;102734.34;;;-8.12;100.00
59513;BME280;45330;51.634;5.562;2022-12-18T03:08:34;102736.72;;;-8.14;100.00
59513;BME280;45330;51.634;5.562;2022-12-18T03:11:10;102741.75;;;-8.14;100.00
59513;BME280;45330;51.634;5.562;2022-12-18T03:13:41;102738.16;;;-8.16;100.00
59513;BME280;45330;51.634;5.562;2022-12-18T03:16:11;102719.16;;;-8.21;100.00
59513;BME280;45330;51.634;5.562;2022-12-18T03:21:10;102729.41;;;-8.19;100.00
59513;BME280;45330;51.634;5.562;2022-12-18T03:23:44;102704.56;;;-8.32;100.00
59513;BME280;45330;51.634;5.562;2022-12-18T03:26:15;102709.03;;;-8.30;100.00
59513;BME280;45330;51.634;5.562;2022-12-18T03:28:50;102697.72;;;-8.33;100.00
59513;BME280;45330;51.634;5.562;2022-12-18T03:31:17;102724.50;;;-8.18;100.00
59513;BME280;45330;51.634;5.562;2022-12-18T03:33:54;102722.28;;;-8.23;100.00
59513;BME280;45330;51.634;5.562;2022-12-18T03:36:19;102732.09;;;-8.18;100.00
59513;BME280;45330;51.634;5.562;2022-12-18T03:38:45;102687.31;;;-8.36;100.00
59513;BME280;45330;51.634;5.562;2022-12-18T03:41:31;102722.28;;;-8.15;100.00
59513;BME280;45330;51.634;5.562;2022-12-18T03:44:14;102711.75;;;-8.19;100.00
59513;BME280;45330;51.634;5.562;2022-12-18T03:46:47;102682.72;;;-8.40;100.00
59513;BME280;45330;51.634;5.562;2022-12-18T03:49:41;102713.81;;;-8.24;100.00
59513;BME280;45330;51.634;5.562;2022-12-18T03:52:20;102708.75;;;-8.24;100.00
59513;BME280;45330;51.634;5.562;2022-12-18T03:54:50;102703.09;;;-8.21;100.00
59513;BME280;45330;51.634;5.562;2022-12-18T03:57:20;102701.19;;;-8.24;100.00
59513;BME280;45330;51.634;5.562;2022-12-18T03:59:47;102667.56;;;-8.40;100.00
59513;BME280;45330;51.634;5.562;2022-12-18T04:02:16;102695.50;;;-8.30;100.00
59513;BME280;45330;51.634;5.562;2022-12-18T04:04:43;102693.56;;;-8.33;100.00
59513;BME280;45330;51.634;5.562;2022-12-18T04:07:10;102680.19;;;-8.40;100.00
59513;BME280;45330;51.634;5.562;2022-12-18T04:09:36;102662.03;;;-8.54;100.00
59513;BME280;45330;51.634;5.562;2022-12-18T04:12:03;102684.22;;;-8.34;100.00
59513;BME280;45330;51.634;5.562;2022-12-18T04:14:29;102679.19;;;-8.34;100.00
59513;BME280;45330;51.634;5.562;2022-12-18T04:16:54;102672.19;;;-8.36;100.00
59513;BME280;45330;51.634;5.562;2022-12-18T04:19:19;102644.09;;;-8.48;100.00
59513;BME280;45330;51.634;5.562;2022-12-18T04:21:45;102667.13;;;-8.36;100.00
59513;BME280;45330;51.634;5.562;2022-12-18T04:24:10;102654.34;;;-8.47;100.00
59513;BME280;45330;51.634;5.562;2022-12-18T04:26:35;102657.78;;;-8.46;100.00
59513;BME280;45330;51.634;5.562;2022-12-18T04:29:01;102642.75;;;-8.53;100.00
59513;BME280;45330;51.634;5.562;2022-12-18T04:31:26;102667.84;;;-8.37;100.00
59513;BME280;45330;51.634;5.562;2022-12-18T04:33:52;102647.38;;;-8.49;100.00
59513;BME280;45330;51.634;5.562;2022-12-18T04:36:17;102644.09;;;-8.48;100.00
59513;BME280;45330;51.634;5.562;2022-12-18T04:38:43;102662.38;;;-8.42;100.00
59513;BME280;45330;51.634;5.562;2022-12-18T04:41:08;102656.13;;;-8.46;100.00
59513;BME280;45330;51.634;5.562;2022-12-18T04:43:33;102677.06;;;-8.38;100.00
59513;BME280;45330;51.634;5.562;2022-12-18T04:46:04;102651.78;;;-8.55;100.00
59513;BME280;45330;51.634;5.562;2022-12-18T04:48:29;102685.97;;;-8.41;100.00
59513;BME280;45330;51.634;5.562;2022-12-18T04:50:55;102676.47;;;-8.53;100.00
59513;BME280;45330;51.634;5.562;2022-12-18T04:53:20;102691.31;;;-8.38;100.00
59513;BME280;45330;51.634;5.562;2022-12-18T04:55:45;102692.81;;;-8.40;100.00
59513;BME280;45330;51.634;5.562;2022-12-18T04:58:11;102682.88;;;-8.48;100.00
59513;BME280;45330;51.634;5.562;2022-12-18T05:00:36;102671.84;;;-8.57;100.00
59513;BME280;45330;51.634;5.562;2022-12-18T05:03:01;102692.97;;;-8.48;100.00
59513;BME280;45330;51.634;5.562;2022-12-18T05:05:27;102704.06;;;-8.54;100.00
59513;BME280;45330;51.634;5.562;2022-12-18T05:07:52;102718.50;;;-8.53;100.00
59513;BME280;45330;51.634;5.562;2022-12-18T05:10:18;102693.00;;;-8.72;100.00
59513;BME280;45330;51.634;5.562;2022-12-18T05:12:43;102725.72;;;-8.56;100.00
59513;BME280;45330;51.634;5.562;2022-12-18T05:15:26;102732.41;;;-8.57;100.00
59513;BME280;45330;51.634;5.562;2022-12-18T05:17:51;102724.84;;;-8.57;100.00
59513;BME280;45330;51.634;5.562;2022-12-18T05:20:17;102703.09;;;-8.72;100.00
59513;BME280;45330;51.634;5.562;2022-12-18T05:22:43;102722.31;;;-8.57;100.00
59513;BME280;45330;51.634;5.562;2022-12-18T05:25:09;102720.38;;;-8.59;100.00
59513;BME280;45330;51.634;5.562;2022-12-18T05:27:34;102732.72;;;-8.54;100.00
59513;BME280;45330;51.634;5.562;2022-12-18T05:30:00;102718.34;;;-8.55;100.00
59513;BME280;45330;51.634;5.562;2022-12-18T05:32:25;102720.09;;;-8.54;100.00
59513;BME280;45330;51.634;5.562;2022-12-18T05:34:50;102704.94;;;-8.54;100.00
59513;BME280;45330;51.634;5.562;2022-12-18T05:37:16;102686.38;;;-8.63;100.00
59513;BME280;45330;51.634;5.562;2022-12-18T05:39:43;102660.50;;;-8.69;100.00
59513;BME280;45330;51.634;5.562;2022-12-18T05:42:09;102698.75;;;-8.49;100.00
59513;BME280;45330;51.634;5.562;2022-12-18T05:44:34;102690.28;;;-8.49;100.00
59513;BME280;45330;51.634;5.562;2022-12-18T05:47:00;102684.47;;;-8.57;100.00
59513;BME280;45330;51.634;5.562;2022-12-18T05:49:25;102694.44;;;-8.50;100.00
59513;BME280;45330;51.634;5.562;2022-12-18T05:51:51;102678.97;;;-8.53;100.00
59513;BME280;45330;51.634;5.562;2022-12-18T05:54:16;102699.16;;;-8.44;100.00
59513;BME280;45330;51.634;5.562;2022-12-18T05:56:41;102686.13;;;-8.49;100.00
59513;BME280;45330;51.634;5.562;2022-12-18T05:59:07;102677.97;;;-8.46;100.00
59513;BME280;45330;51.634;5.562;2022-12-18T06:01:32;102654.59;;;-8.61;100.00
59513;BME280;45330;51.634;5.562;2022-12-18T06:03:57;102652.38;;;-8.58;100.00
59513;BME280;45330;51.634;5.562;2022-12-18T06:06:25;102677.38;;;-8.43;100.00
59513;BME280;45330;51.634;5.562;2022-12-18T06:08:52;102654.28;;;-8.64;100.00
59513;BME280;45330;51.634;5.562;2022-12-18T06:11:20;102676.03;;;-8.49;100.00
59513;BME280;45330;51.634;5.562;2022-12-18T06:13:45;102647.47;;;-8.65;100.00
59513;BME280;45330;51.634;5.562;2022-12-18T06:16:11;102673.94;;;-8.53;100.00
59513;BME280;45330;51.634;5.562;2022-12-18T06:18:37;102653.88;;;-8.60;100.00
59513;BME280;45330;51.634;5.562;2022-12-18T06:21:02;102636.03;;;-8.70;100.00
59513;BME280;45330;51.634;5.562;2022-12-18T06:23:28;102661.47;;;-8.51;100.00
59513;BME280;45330;51.634;5.562;2022-12-18T06:25:53;102664.41;;;-8.55;100.00
59513;BME280;45330;51.634;5.562;2022-12-18T06:28:19;102638.97;;;-8.74;100.00
59513;BME280;45330;51.634;5.562;2022-12-18T06:30:48;102621.38;;;-8.90;100.00
59513;BME280;45330;51.634;5.562;2022-12-18T06:33:15;102671.97;;;-8.64;100.00
59513;BME280;45330;51.634;5.562;2022-12-18T06:35:41;102655.56;;;-8.76;100.00
59513;BME280;45330;51.634;5.562;2022-12-18T06:38:06;102658.31;;;-8.66;100.00
59513;BME280;45330;51.634;5.562;2022-12-18T06:40:31;102675.84;;;-8.59;100.00
59513;BME280;45330;51.634;5.562;2022-12-18T06:42:57;102675.84;;;-8.59;100.00
59513;BME280;45330;51.634;5.562;2022-12-18T06:45:23;102673.19;;;-8.60;100.00
59513;BME280;45330;51.634;5.562;2022-12-18T06:47:49;102659.19;;;-8.66;100.00
59513;BME280;45330;51.634;5.562;2022-12-18T06:50:14;102632.72;;;-8.78;100.00
59513;BME280;45330;51.634;5.562;2022-12-18T06:52:40;102640.44;;;-8.76;100.00
59513;BME280;45330;51.634;5.562;2022-12-18T06:55:08;102637.47;;;-8.81;100.00
59513;BME280;45330;51.634;5.562;2022-12-18T06:57:34;102651.16;;;-8.70;100.00
59513;BME280;45330;51.634;5.562;2022-12-18T06:59:59;102659.91;;;-8.67;100.00
59513;BME280;45330;51.634;5.562;2022-12-18T07:02:25;102654.72;;;-8.68;100.00
59513;BME280;45330;51.634;5.562;2022-12-18T07:04:50;102648.78;;;-8.69;100.00
59513;BME280;45330;51.634;5.562;2022-12-18T07:07:15;102639.28;;;-8.71;100.00
59513;BME280;45330;51.634;5.562;2022-12-18T07:09:41;102640.00;;;-8.72;100.00
59513;BME280;45330;51.634;5.562;2022-12-18T07:12:06;102635.09;;;-8.80;100.00
59513;BME280;45330;51.634;5.562;2022-12-18T07:14:33;102645.50;;;-8.68;100.00
59513;BME280;45330;51.634;5.562;2022-12-18T07:16:58;102636.19;;;-8.69;100.00
59513;BME280;45330;51.634;5.562;2022-12-18T07:19:23;102630.97;;;-8.70;100.00
59513;BME280;45330;51.634;5.562;2022-12-18T07:21:50;102632.31;;;-8.65;100.00
59513;BME280;45330;51.634;5.562;2022-12-18T07:24:15;102620.75;;;-8.63;100.00
59513;BME280;45330;51.634;5.562;2022-12-18T07:26:40;102624.47;;;-8.59;100.00
59513;BME280;45330;51.634;5.562;2022-12-18T07:29:06;102596.09;;;-8.74;100.00
59513;BME280;45330;51.634;5.562;2022-12-18T07:31:31;102610.97;;;-8.60;100.00
59513;BME280;45330;51.634;5.562;2022-12-18T07:33:56;102609.81;;;-8.55;100.00
59513;BME280;45330;51.634;5.562;2022-12-18T07:36:22;102616.75;;;-8.52;100.00
59513;BME280;45330;51.634;5.562;2022-12-18T07:38:48;102578.28;;;-8.67;100.00
59513;BME280;45330;51.634;5.562;2022-12-18T07:41:14;102563.72;;;-8.70;100.00
59513;BME280;45330;51.634;5.562;2022-12-18T07:43:41;102577.56;;;-8.66;100.00
59513;BME280;45330;51.634;5.562;2022-12-18T07:46:07;102572.81;;;-8.63;100.00
59513;BME280;45330;51.634;5.562;2022-12-18T07:48:33;102574.28;;;-8.56;100.00
59513;BME280;45330;51.634;5.562;2022-12-18T07:51:03;102583.50;;;-8.39;100.00
59513;BME280;45330;51.634;5.562;2022-12-18T07:53:29;102546.56;;;-8.48;100.00
59513;BME280;45330;51.634;5.562;2022-12-18T07:55:56;102553.22;;;-8.39;100.00
59513;BME280;45330;51.634;5.562;2022-12-18T07:58:22;102562.88;;;-8.18;100.00
59513;BME280;45330;51.634;5.562;2022-12-18T08:00:47;102532.72;;;-8.25;100.00
59513;BME280;45330;51.634;5.562;2022-12-18T08:03:12;102552.47;;;-8.03;100.00
59513;BME280;45330;51.634;5.562;2022-12-18T08:05:38;102566.28;;;-7.91;100.00
59513;BME280;45330;51.634;5.562;2022-12-18T08:08:03;102562.13;;;-7.82;100.00
59513;BME280;45330;51.634;5.562;2022-12-18T08:10:29;102562.41;;;-7.70;100.00
59513;BME280;45330;51.634;5.562;2022-12-18T08:12:54;102565.38;;;-7.56;100.00
59513;BME280;45330;51.634;5.562;2022-12-18T08:15:19;102568.00;;;-7.46;100.00
59513;BME280;45330;51.634;5.562;2022-12-18T08:17:45;102567.09;;;-7.38;100.00
59513;BME280;45330;51.634;5.562;2022-12-18T08:20:11;102548.81;;;-7.44;100.00
59513;BME280;45330;51.634;5.562;2022-12-18T08:22:38;102579.09;;;-7.18;100.00
59513;BME280;45330;51.634;5.562;2022-12-18T08:25:04;102581.44;;;-7.11;100.00
59513;BME280;45330;51.634;5.562;2022-12-18T08:27:29;102557.97;;;-7.18;100.00
59513;BME280;45330;51.634;5.562;2022-12-18T08:29:55;102566.38;;;-7.09;100.00
59513;BME280;45330;51.634;5.562;2022-12-18T08:32:21;102581.22;;;-6.95;100.00
59513;BME280;45330;51.634;5.562;2022-12-18T08:34:46;102585.06;;;-6.90;100.00
59513;BME280;45330;51.634;5.562;2022-12-18T08:37:11;102563.63;;;-6.84;100.00
59513;BME280;45330;51.634;5.562;2022-12-18T08:39:37;102581.47;;;-6.83;100.00
59513;BME280;45330;51.634;5.562;2022-12-18T08:42:02;102557.69;;;-6.94;100.00
59513;BME280;45330;51.634;5.562;2022-12-18T08:44:46;102582.31;;;-6.74;100.00
59513;BME280;45330;51.634;5.562;2022-12-18T08:47:12;102568.75;;;-6.74;100.00
59513;BME280;45330;51.634;5.562;2022-12-18T08:49:37;102547.34;;;-6.78;100.00
59513;BME280;45330;51.634;5.562;2022-12-18T08:52:03;102550.84;;;-6.67;100.00
59513;BME280;45330;51.634;5.562;2022-12-18T08:54:28;102548.59;;;-6.64;100.00
59513;BME280;45330;51.634;5.562;2022-12-18T08:56:54;102555.38;;;-6.54;100.00
59513;BME280;45330;51.634;5.562;2022-12-18T08:59:19;102522.25;;;-6.66;100.00
59513;BME280;45330;51.634;5.562;2022-12-18T09:01:45;102558.41;;;-6.39;100.00
59513;BME280;45330;51.634;5.562;2022-12-18T09:04:11;102548.34;;;-6.29;100.00
59513;BME280;45330;51.634;5.562;2022-12-18T09:06:38;102519.69;;;-6.38;100.00
59513;BME280;45330;51.634;5.562;2022-12-18T09:09:04;102529.13;;;-6.27;100.00
59513;BME280;45330;51.634;5.562;2022-12-18T09:11:30;102562.06;;;-6.08;100.00
59513;BME280;45330;51.634;5.562;2022-12-18T09:13:57;102526.38;;;-6.19;100.00
59513;BME280;45330;51.634;5.562;2022-12-18T09:16:25;102529.88;;;-6.09;100.00
59513;BME280;45330;51.634;5.562;2022-12-18T09:18:50;102557.06;;;-5.87;100.00
59513;BME280;45330;51.634;5.562;2022-12-18T09:21:20;102542.00;;;-5.86;100.00
59513;BME280;45330;51.634;5.562;2022-12-18T09:23:50;102567.91;;;-5.79;100.00
59513;BME280;45330;51.634;5.562;2022-12-18T09:26:15;102546.47;;;-5.83;100.00
59513;BME280;45330;51.634;5.562;2022-12-18T09:28:41;102580.16;;;-5.65;100.00
59513;BME280;45330;51.634;5.562;2022-12-18T09:31:07;102580.53;;;-5.60;100.00
59513;BME280;45330;51.634;5.562;2022-12-18T09:33:35;102556.16;;;-5.69;100.00
59513;BME280;45330;51.634;5.562;2022-12-18T09:36:04;102546.81;;;-5.59;100.00
59513;BME280;45330;51.634;5.562;2022-12-18T09:38:30;102558.03;;;-5.47;100.00
59513;BME280;45330;51.634;5.562;2022-12-18T09:41:04;102545.13;;;-5.40;100.00
59513;BME280;45330;51.634;5.562;2022-12-18T09:43:46;102539.31;;;-5.28;100.00
59513;BME280;45330;51.634;5.562;2022-12-18T09:46:32;102536.53;;;-5.21;100.00
59513;BME280;45330;51.634;5.562;2022-12-18T09:49:03;102530.97;;;-5.17;100.00
59513;BME280;45330;51.634;5.562;2022-12-18T09:51:45;102505.06;;;-5.23;100.00
59513;BME280;45330;51.634;5.562;2022-12-18T09:54:25;102526.28;;;-5.02;100.00
59513;BME280;45330;51.634;5.562;2022-12-18T09:56:51;102495.31;;;-5.08;100.00
59513;BME280;45330;51.634;5.562;2022-12-18T09:59:31;102521.09;;;-4.83;100.00
59513;BME280;45330;51.634;5.562;2022-12-18T10:01:59;102513.13;;;-4.77;100.00
59513;BME280;45330;51.634;5.562;2022-12-18T10:04:24;102497.25;;;-4.75;100.00
59513;BME280;45330;51.634;5.562;2022-12-18T10:07:12;102498.25;;;-4.73;100.00
59513;BME280;45330;51.634;5.562;2022-12-18T10:09:52;102509.16;;;-4.53;100.00
59513;BME280;45330;51.634;5.562;2022-12-18T10:12:38;102518.16;;;-4.36;100.00
59513;BME280;45330;51.634;5.562;2022-12-18T10:17:59;102505.72;;;-4.33;100.00
59513;BME280;45330;51.634;5.562;2022-12-18T10:20:45;102516.63;;;-4.24;100.00
59513;BME280;45330;51.634;5.562;2022-12-18T10:23:28;102497.44;;;-4.20;100.00
59513;BME280;45330;51.634;5.562;2022-12-18T10:26:05;102511.63;;;-4.02;100.00
59513;BME280;45330;51.634;5.562;2022-12-18T10:28:35;102505.50;;;-4.04;100.00
59513;BME280;45330;51.634;5.562;2022-12-18T10:31:01;102506.78;;;-3.99;100.00
59513;BME280;45330;51.634;5.562;2022-12-18T10:33:31;102493.53;;;-3.94;100.00
59513;BME280;45330;51.634;5.562;2022-12-18T10:35:57;102479.69;;;-3.98;100.00
59513;BME280;45330;51.634;5.562;2022-12-18T10:38:26;102503.78;;;-3.83;100.00
59513;BME280;45330;51.634;5.562;2022-12-18T10:41:00;102490.66;;;-3.77;100.00
59513;BME280;45330;51.634;5.562;2022-12-18T10:43:39;102487.47;;;-3.74;100.00
59513;BME280;45330;51.634;5.562;2022-12-18T10:51:05;102466.00;;;-3.56;100.00
59513;BME280;45330;51.634;5.562;2022-12-18T10:53:33;102442.53;;;-3.64;100.00
59513;BME280;45330;51.634;5.562;2022-12-18T10:55:59;102441.25;;;-3.58;100.00
59513;BME280;45330;51.634;5.562;2022-12-18T10:58:27;102432.28;;;-3.53;100.00
59513;BME280;45330;51.634;5.562;2022-12-18T11:03:36;102430.38;;;-3.34;100.00
59513;BME280;45330;51.634;5.562;2022-12-18T11:06:11;102434.50;;;-3.24;100.00
59513;BME280;45330;51.634;5.562;2022-12-18T11:08:38;102412.44;;;-3.35;100.00
59513;BME280;45330;51.634;5.562;2022-12-18T11:11:07;102432.72;;;-3.25;100.00
59513;BME280;45330;51.634;5.562;2022-12-18T11:13:40;102442.31;;;-3.11;100.00
59513;BME280;45330;51.634;5.562;2022-12-18T11:16:05;102442.66;;;-3.06;100.00
59513;BME280;45330;51.634;5.562;2022-12-18T11:18:35;102419.94;;;-3.15;100.00
59513;BME280;45330;51.634;5.562;2022-12-18T11:21:09;102430.38;;;-3.00;100.00
59513;BME280;45330;51.634;5.562;2022-12-18T11:23:36;102424.06;;;-2.93;100.00
59513;BME280;45330;51.634;5.562;2022-12-18T11:26:04;102426.84;;;-2.90;100.00
59513;BME280;45330;51.634;5.562;2022-12-18T11:31:23;102395.72;;;-2.86;100.00
59513;BME280;45330;51.634;5.562;2022-12-18T11:36:29;102407.63;;;-2.63;100.00
59513;BME280;45330;51.634;5.562;2022-12-18T11:39:02;102417.94;;;-2.61;100.00
59513;BME280;45330;51.634;5.562;2022-12-18T11:41:36;102408.72;;;-2.59;100.00
59513;BME280;45330;51.634;5.562;2022-12-18T11:44:29;102406.75;;;-2.51;100.00
59513;BME280;45330;51.634;5.562;2022-12-18T11:49:51;102410.94;;;-2.40;100.00
59513;BME280;45330;51.634;5.562;2022-12-18T11:52:28;102402.97;;;-2.33;100.00
59513;BME280;45330;51.634;5.562;2022-12-18T11:55:00;102376.13;;;-2.39;100.00
59513;BME280;45330;51.634;5.562;2022-12-18T11:57:37;102405.06;;;-2.27;100.00
59513;BME280;45330;51.634;5.562;2022-12-18T12:00:21;102375.78;;;-2.32;100.00
59513;BME280;45330;51.634;5.562;2022-12-18T12:14:32;102377.44;;;-2.09;100.00
59513;BME280;45330;51.634;5.562;2022-12-18T12:17:17;102358.16;;;-2.17;100.00
59513;BME280;45330;51.634;5.562;2022-12-18T12:20:02;102345.28;;;-2.19;100.00
59513;BME280;45330;51.634;5.562;2022-12-18T12:22:48;102344.72;;;-2.15;100.00
59513;BME280;45330;51.634;5.562;2022-12-18T12:25:28;102340.66;;;-2.25;100.00
59513;BME280;45330;51.634;5.562;2022-12-18T12:31:31;102333.75;;;-2.14;100.00
59513;BME280;45330;51.634;5.562;2022-12-18T12:34:34;102349.91;;;-2.01;100.00
59513;BME280;45330;51.634;5.562;2022-12-18T12:39:42;102319.34;;;-2.13;100.00
59513;BME280;45330;51.634;5.562;2022-12-18T12:42:29;102331.38;;;-1.99;100.00
59513;BME280;45330;51.634;5.562;2022-12-18T12:45:21;102331.69;;;-1.94;100.00
59513;BME280;45330;51.634;5.562;2022-12-18T12:47:48;102310.66;;;-2.03;100.00
59513;BME280;45330;51.634;5.562;2022-12-18T12:50:17;102316.25;;;-1.96;100.00
59513;BME280;45330;51.634;5.562;2022-12-18T12:52:47;102290.91;;;-2.06;100.00
59513;BME280;45330;51.634;5.562;2022-12-18T12:55:18;102301.75;;;-1.97;100.00
59513;BME280;45330;51.634;5.562;2022-12-18T12:57:46;102302.81;;;-1.81;100.00
59513;BME280;45330;51.634;5.562;2022-12-18T13:00:18;102296.41;;;-1.88;100.00
59513;BME280;45330;51.634;5.562;2022-12-18T13:05:51;102290.63;;;-1.85;100.00
59513;BME280;45330;51.634;5.562;2022-12-18T13:08:30;102274.00;;;-1.92;100.00
59513;BME280;45330;51.634;5.562;2022-12-18T13:10:59;102286.41;;;-1.85;100.00
59513;BME280;45330;51.634;5.562;2022-12-18T13:13:55;102280.72;;;-1.81;100.00
59513;BME280;45330;51.634;5.562;2022-12-18T13:16:23;102259.16;;;-1.98;100.00
59513;BME280;45330;51.634;5.562;2022-12-18T13:18:54;102257.41;;;-1.99;100.00
59513;BME280;45330;51.634;5.562;2022-12-18T13:21:28;102255.75;;;-1.98;100.00
59513;BME280;45330;51.634;5.562;2022-12-18T13:23:54;102256.53;;;-1.99;100.00
59513;BME280;45330;51.634;5.562;2022-12-18T13:28:51;102275.03;;;-1.77;100.00
59513;BME280;45330;51.634;5.562;2022-12-18T13:34:20;102280.25;;;-1.75;100.00
59513;BME280;45330;51.634;5.562;2022-12-18T13:36:47;102249.38;;;-1.92;100.00
59513;BME280;45330;51.634;5.562;2022-12-18T13:41:50;102273.84;;;-1.82;100.00
59513;BME280;45330;51.634;5.562;2022-12-18T13:44:35;102274.94;;;-1.78;100.00
59513;BME280;45330;51.634;5.562;2022-12-18T13:47:02;102268.63;;;-1.83;100.00
59513;BME280;45330;51.634;5.562;2022-12-18T13:49:42;102237.91;;;-1.98;100.00
59513;BME280;45330;51.634;5.562;2022-12-18T13:52:23;102233.66;;;-1.98;100.00
59513;BME280;45330;51.634;5.562;2022-12-18T13:55:00;102239.06;;;-1.93;100.00
59513;BME280;45330;51.634;5.562;2022-12-18T13:57:37;102248.41;;;-1.80;100.00
59513;BME280;45330;51.634;5.562;2022-12-18T14:02:45;102221.41;;;-1.90;100.00